createdAt,value
2023-05-07T00:03:36.724Z,10.86
2023-05-07T00:07:26.250Z,11.01
2023-05-07T00:11:14.527Z,10.87
2023-05-07T00:15:02.102Z,10.86
2023-05-07T00:18:51.580Z,10.98
2023-05-07T00:22:45.002Z,10.91
2023-05-07T00:26:32.418Z,10.88
2023-05-07T00:34:46.894Z,10.84
2023-05-07T00:39:14.306Z,10.93
2023-05-07T00:43:42.594Z,10.85
2023-05-07T00:48:10.132Z,10.90
2023-05-07T00:52:37.644Z,11.07
2023-05-07T00:57:05.070Z,11.08
2023-05-07T01:01:32.681Z,11.03
2023-05-07T01:06:06.305Z,10.96
2023-05-07T01:10:35.550Z,11.03
2023-05-07T01:15:03.956Z,10.91
2023-05-07T01:19:34.708Z,10.91
2023-05-07T01:24:02.322Z,10.90
2023-05-07T01:28:29.954Z,10.78
2023-05-07T01:33:00.240Z,10.77
2023-05-07T01:37:28.210Z,10.75
2023-05-07T01:41:55.721Z,10.66
2023-05-07T01:46:23.332Z,10.58
2023-05-07T01:50:51.905Z,10.49
2023-05-07T01:55:19.464Z,10.40
2023-05-07T01:59:48.574Z,10.30
2023-05-07T02:04:16.288Z,10.12
2023-05-07T02:08:43.708Z,10.14
2023-05-07T02:13:11.385Z,10.02
2023-05-07T02:17:38.966Z,9.96
2023-05-07T02:22:06.679Z,9.88
2023-05-07T02:26:34.229Z,9.84
2023-05-07T02:31:01.728Z,9.82
2023-05-07T02:35:29.803Z,9.77
2023-05-07T02:39:57.263Z,9.78
2023-05-07T02:44:24.956Z,9.82
2023-05-07T02:48:52.259Z,9.90
2023-05-07T02:53:19.454Z,9.95
2023-05-07T02:57:48.346Z,10.01
2023-05-07T03:01:56.289Z,9.95
2023-05-07T03:06:05.967Z,9.78
2023-05-07T03:09:53.521Z,9.72
2023-05-07T03:13:41.289Z,9.69
2023-05-07T03:17:20.998Z,9.69
2023-05-07T03:20:51.686Z,9.69
2023-05-07T03:24:31.432Z,9.68
2023-05-07T03:28:19.476Z,9.62
2023-05-07T03:32:06.737Z,9.67
2023-05-07T03:35:56.111Z,9.84
2023-05-07T03:39:26.084Z,10.03
2023-05-07T03:43:17.197Z,9.87
2023-05-07T03:47:08.652Z,9.68
2023-05-07T03:50:56.527Z,9.54
2023-05-07T03:54:28.168Z,9.48
2023-05-07T03:58:17.643Z,9.53
2023-05-07T04:02:05.838Z,9.63
2023-05-07T04:05:53.654Z,9.75
2023-05-07T04:09:41.606Z,9.94
2023-05-07T04:13:28.883Z,9.98
2023-05-07T04:17:16.739Z,10.03
2023-05-07T04:21:03.757Z,10.09
2023-05-07T04:24:52.300Z,10.21
2023-05-07T04:28:41.353Z,10.29
2023-05-07T04:32:30.102Z,10.27
2023-05-07T04:35:40.190Z,10.29
2023-05-07T04:39:29.041Z,10.38
2023-05-07T04:43:17.211Z,10.59
2023-05-07T04:46:56.475Z,10.59
2023-05-07T04:50:45.766Z,10.76
2023-05-07T04:54:32.977Z,10.90
2023-05-07T04:58:21.124Z,11.08
2023-05-07T05:02:12.267Z,11.28
2023-05-07T05:05:59.941Z,11.27
2023-05-07T05:09:48.302Z,11.12
2023-05-07T05:13:37.973Z,11.00
2023-05-07T05:17:27.970Z,11.23
2023-05-07T05:21:15.486Z,11.42
2023-05-07T05:25:03.790Z,11.27
2023-05-07T05:28:43.170Z,11.56
2023-05-07T05:32:24.971Z,11.72
2023-05-07T05:36:12.989Z,11.76
2023-05-07T05:39:50.833Z,11.84
2023-05-07T05:43:58.409Z,11.69
2023-05-07T05:47:46.316Z,11.88
2023-05-07T05:51:33.673Z,12.09
2023-05-07T05:55:22.099Z,12.09
2023-05-07T05:59:09.615Z,11.86
2023-05-07T06:02:57.600Z,12.14
2023-05-07T06:06:38.662Z,12.21
2023-05-07T06:10:26.454Z,12.44
2023-05-07T06:14:14.200Z,12.27
2023-05-07T06:18:03.148Z,12.13
2023-05-07T06:22:06.975Z,12.56
2023-05-07T06:26:20.445Z,12.68
2023-05-07T06:30:08.795Z,12.38
2023-05-07T06:33:55.156Z,12.66
2023-05-07T06:37:50.880Z,12.70
2023-05-07T06:41:38.926Z,12.83
2023-05-07T06:45:33.034Z,13.09
2023-05-07T06:49:20.980Z,13.31
2023-05-07T06:53:01.275Z,13.24
2023-05-07T06:57:10.346Z,13.36
2023-05-07T07:00:36.419Z,14.12
2023-05-07T07:04:24.467Z,14.62
2023-05-07T07:07:59.616Z,14.26
2023-05-07T07:11:49.137Z,14.17
2023-05-07T07:15:37.313Z,14.16
2023-05-07T07:19:47.041Z,14.64
2023-05-07T07:23:57.342Z,14.62
2023-05-07T07:27:47.002Z,14.92
2023-05-07T07:31:35.299Z,15.01
2023-05-07T07:35:45.537Z,14.84
2023-05-07T07:39:34.633Z,15.05
2023-05-07T07:43:23.000Z,14.98
2023-05-07T07:47:48.110Z,15.08
2023-05-07T07:51:36.901Z,15.39
2023-05-07T07:55:29.253Z,15.42
2023-05-07T07:59:33.745Z,14.95
2023-05-07T08:03:41.906Z,15.10
2023-05-07T08:08:17.100Z,15.48
2023-05-07T08:11:44.030Z,16.11
2023-05-07T08:16:09.004Z,15.34
2023-05-07T08:25:02.462Z,15.03
2023-05-07T08:28:55.255Z,15.51
2023-05-07T08:32:46.522Z,15.80
2023-05-07T08:37:14.250Z,15.41
2023-05-07T08:41:42.751Z,15.53
2023-05-07T08:45:51.462Z,15.68
2023-05-07T08:49:47.029Z,16.10
2023-05-07T08:53:38.806Z,15.93
2023-05-07T08:57:26.544Z,15.43
2023-05-07T09:01:16.263Z,15.56
2023-05-07T09:05:07.866Z,16.57
2023-05-07T09:09:40.500Z,16.68
2023-05-07T09:14:10.149Z,16.34
2023-05-07T09:17:56.782Z,17.08
2023-05-07T09:21:46.695Z,16.37
2023-05-07T09:25:34.856Z,16.12
2023-05-07T09:29:25.136Z,15.88
2023-05-07T09:33:20.990Z,16.31
2023-05-07T09:37:13.332Z,16.06
2023-05-07T09:41:21.275Z,15.79
2023-05-07T09:45:21.263Z,15.58
2023-05-07T09:49:11.093Z,15.27
2023-05-07T09:53:00.969Z,15.85
2023-05-07T09:56:53.079Z,16.37
2023-05-07T10:01:21.437Z,16.64
2023-05-07T10:05:50.399Z,16.61
2023-05-07T10:09:59.489Z,17.42
2023-05-07T10:13:53.740Z,17.70
2023-05-07T10:18:19.490Z,17.84
2023-05-07T10:22:36.649Z,17.80
2023-05-07T10:26:35.580Z,18.30
2023-05-07T10:30:38.373Z,17.63
2023-05-07T10:34:49.383Z,17.04
2023-05-07T10:39:18.365Z,17.41
2023-05-07T10:43:11.950Z,17.58
2023-05-07T10:47:47.820Z,17.69
2023-05-07T10:52:17.876Z,18.60
2023-05-07T10:56:19.445Z,17.54
2023-05-07T11:00:31.755Z,16.94
2023-05-07T11:04:27.161Z,15.93
2023-05-07T11:08:19.165Z,16.24
2023-05-07T11:12:29.155Z,16.19
2023-05-07T11:16:45.455Z,16.45
2023-05-07T11:21:02.763Z,16.82
2023-05-07T11:25:15.744Z,17.19
2023-05-07T11:29:25.936Z,17.33
2023-05-07T11:33:35.167Z,16.92
2023-05-07T11:37:25.631Z,17.93
2023-05-07T11:41:52.829Z,17.94
2023-05-07T11:45:44.792Z,17.69
2023-05-07T11:49:33.488Z,17.98
2023-05-07T11:53:42.005Z,18.52
2023-05-07T11:57:49.485Z,18.88
2023-05-07T12:01:49.969Z,19.74
2023-05-07T12:05:40.130Z,19.19
2023-05-07T12:10:08.779Z,18.58
2023-05-07T12:14:19.321Z,17.83
2023-05-07T12:18:47.355Z,17.63
2023-05-07T12:22:57.322Z,17.92
2023-05-07T12:27:08.850Z,17.55
2023-05-07T12:30:57.691Z,18.41
2023-05-07T12:35:30.214Z,18.86
2023-05-07T12:39:58.508Z,18.43
2023-05-07T12:44:26.677Z,19.48
2023-05-07T12:48:54.641Z,19.42
2023-05-07T12:52:47.946Z,18.26
2023-05-07T12:56:44.289Z,17.78
2023-05-07T13:00:52.183Z,17.14
2023-05-07T13:05:01.673Z,17.91
2023-05-07T13:09:32.955Z,17.56
2023-05-07T13:14:00.532Z,18.45
2023-05-07T13:18:28.379Z,18.10
2023-05-07T13:22:17.388Z,18.17
2023-05-07T13:26:14.623Z,17.38
2023-05-07T13:30:21.492Z,17.95
2023-05-07T13:34:10.948Z,17.82
2023-05-07T13:38:20.389Z,18.53
2023-05-07T13:42:09.446Z,18.80
2023-05-07T13:46:17.637Z,18.87
2023-05-07T13:50:46.998Z,19.45
2023-05-07T13:54:58.119Z,20.00
2023-05-07T13:59:53.692Z,20.29
2023-05-07T14:03:37.140Z,20.80
2023-05-07T14:08:05.079Z,21.93
2023-05-07T14:11:52.910Z,19.99
2023-05-07T14:15:36.149Z,18.48
2023-05-07T14:19:33.125Z,17.63
2023-05-07T14:23:41.128Z,17.91
2023-05-07T14:27:45.499Z,17.98
2023-05-07T14:31:56.652Z,18.01
2023-05-07T14:36:27.148Z,17.68
2023-05-07T14:40:17.284Z,18.43
2023-05-07T14:44:09.866Z,18.55
2023-05-07T14:48:21.135Z,19.31
2023-05-07T14:52:10.240Z,19.56
2023-05-07T14:56:08.451Z,19.66
2023-05-07T14:59:57.290Z,20.43
2023-05-07T15:03:46.469Z,19.18
2023-05-07T15:07:36.370Z,17.64
2023-05-07T15:11:45.288Z,17.69
2023-05-07T15:15:54.953Z,18.14
2023-05-07T15:19:47.316Z,17.66
2023-05-07T15:23:38.410Z,17.68
2023-05-07T15:27:46.764Z,17.76
2023-05-07T15:31:20.178Z,17.98
2023-05-07T15:35:28.035Z,17.89
2023-05-07T15:39:19.453Z,17.61
2023-05-07T15:43:11.385Z,17.09
2023-05-07T15:47:22.512Z,17.18
2023-05-07T15:51:11.725Z,17.17
2023-05-07T15:55:39.681Z,18.03
2023-05-07T15:59:27.658Z,18.37
2023-05-07T16:03:19.048Z,19.21
2023-05-07T16:07:08.833Z,19.53
2023-05-07T16:11:19.286Z,18.43
2023-05-07T16:15:07.780Z,18.77
2023-05-07T16:18:59.500Z,18.96
2023-05-07T16:22:55.539Z,19.95
2023-05-07T16:27:00.005Z,20.20
2023-05-07T16:30:45.573Z,18.22
2023-05-07T16:34:36.918Z,18.71
2023-05-07T16:38:45.280Z,17.65
2023-05-07T16:42:34.814Z,17.95
2023-05-07T16:46:38.377Z,17.59
2023-05-07T16:50:50.530Z,17.61
2023-05-07T16:54:39.150Z,17.79
2023-05-07T16:58:27.041Z,18.27
2023-05-07T17:02:16.147Z,18.53
2023-05-07T17:06:04.815Z,18.81
2023-05-07T17:09:57.690Z,18.32
2023-05-07T17:13:46.410Z,17.67
2023-05-07T17:17:34.357Z,17.36
2023-05-07T17:21:22.524Z,17.34
2023-05-07T17:25:11.972Z,16.99
2023-05-07T17:29:00.842Z,17.16
2023-05-07T17:32:49.685Z,16.99
2023-05-07T17:36:41.686Z,16.98
2023-05-07T17:40:30.526Z,16.92
2023-05-07T17:44:20.339Z,16.82
2023-05-07T17:48:06.563Z,16.58
2023-05-07T17:52:04.531Z,16.48
2023-05-07T17:55:53.656Z,16.37
2023-05-07T17:59:44.814Z,16.33
2023-05-07T18:03:35.326Z,16.32
2023-05-07T18:07:28.100Z,16.28
2023-05-07T18:11:19.072Z,16.16
2023-05-07T18:15:09.348Z,16.03
2023-05-07T18:18:58.939Z,15.92
2023-05-07T18:22:41.375Z,15.70
2023-05-07T18:26:30.067Z,15.47
2023-05-07T18:30:22.509Z,15.28
2023-05-07T18:34:16.039Z,14.93
2023-05-07T18:38:06.770Z,14.87
2023-05-07T18:41:55.444Z,14.71
2023-05-07T18:45:40.962Z,14.56
2023-05-07T18:49:30.635Z,14.33
2023-05-07T18:53:20.200Z,14.15
2023-05-07T18:57:08.707Z,13.95
2023-05-07T19:00:57.291Z,13.79
2023-05-07T19:04:40.085Z,13.61
2023-05-07T19:08:29.883Z,13.41
2023-05-07T19:12:35.809Z,13.04
2023-05-07T19:16:12.426Z,12.87
2023-05-07T19:19:45.033Z,12.89
2023-05-07T19:23:35.578Z,12.80
2023-05-07T19:27:24.216Z,12.71
2023-05-07T19:31:13.393Z,12.63
2023-05-07T19:35:02.875Z,12.60
2023-05-07T19:38:43.697Z,12.52
2023-05-07T19:42:14.963Z,12.46
2023-05-07T19:46:04.689Z,12.51
2023-05-07T19:49:54.500Z,12.43
2023-05-07T19:53:43.687Z,12.24
2023-05-07T19:57:15.111Z,12.18
2023-05-07T20:00:40.508Z,12.14
2023-05-07T20:04:31.033Z,12.09
2023-05-07T20:08:28.783Z,11.93
2023-05-07T20:12:25.918Z,11.77
2023-05-07T20:16:25.616Z,11.66
2023-05-07T20:20:13.985Z,11.61
2023-05-07T20:24:26.801Z,11.51
2023-05-07T20:28:22.907Z,11.36
2023-05-07T20:32:12.287Z,11.08
2023-05-07T20:35:46.728Z,10.90
2023-05-07T20:39:35.951Z,10.81
2023-05-07T20:43:18.856Z,10.69
2023-05-07T20:46:48.425Z,10.59
2023-05-07T20:50:35.076Z,10.40
2023-05-07T20:54:24.136Z,10.37
2023-05-07T20:58:12.340Z,10.34
2023-05-07T21:02:01.390Z,10.21
2023-05-07T21:05:55.727Z,10.12
2023-05-07T21:09:25.139Z,10.03
2023-05-07T21:13:14.212Z,10.00
2023-05-07T21:16:57.443Z,9.87
2023-05-07T21:20:28.681Z,9.73
2023-05-07T21:24:16.595Z,9.66
2023-05-07T21:27:50.336Z,9.58
2023-05-07T21:31:38.045Z,9.43
2023-05-07T21:35:25.744Z,9.15
2023-05-07T21:39:13.542Z,8.89
2023-05-07T21:43:02.650Z,8.73
2023-05-07T21:46:50.335Z,8.63
2023-05-07T21:50:38.408Z,8.54
2023-05-07T21:54:26.925Z,8.44
2023-05-07T21:58:05.992Z,8.35
2023-05-07T22:01:48.526Z,8.45
2023-05-07T22:05:36.301Z,8.49
2023-05-07T22:09:32.639Z,8.52
2023-05-07T22:13:20.625Z,8.28
2023-05-07T22:17:09.113Z,8.06
2023-05-07T22:20:44.452Z,7.88
2023-05-07T22:24:32.671Z,7.82
2023-05-07T22:28:20.598Z,7.80
2023-05-07T22:31:58.537Z,7.78
2023-05-07T22:35:32.162Z,7.72
2023-05-07T22:39:18.852Z,7.70
2023-05-07T22:43:06.743Z,7.67
2023-05-07T22:47:02.996Z,7.57
2023-05-07T22:50:37.667Z,7.40
2023-05-07T22:54:25.684Z,7.35
2023-05-07T22:57:55.753Z,7.39
2023-05-07T23:01:44.460Z,7.45
2023-05-07T23:05:31.961Z,7.49
2023-05-07T23:09:20.033Z,7.31
2023-05-07T23:13:07.536Z,7.24
2023-05-07T23:16:48.128Z,7.01
2023-05-07T23:20:17.776Z,7.08
2023-05-07T23:23:56.686Z,7.21
2023-05-07T23:27:34.162Z,7.15
2023-05-07T23:31:01.980Z,7.02
2023-05-07T23:34:41.352Z,6.92
2023-05-07T23:38:28.890Z,6.94
2023-05-07T23:41:59.757Z,7.01
2023-05-07T23:45:37.137Z,7.05
2023-05-07T23:49:24.623Z,7.05
2023-05-07T23:53:12.250Z,7.07
2023-05-07T23:56:59.658Z,7.07
